Time;durP1;ratioP1;P1;durP2;ratioP2;P2;SDS_P1;SDS_P2;PMS_P1;PMS_P2;Temp;Humidity;BMP_temperature;BMP_pressure;BME280_temperature;BME280_humidity;BME280_pressure;Samples;Min_cycle;Max_cycle;Signal;HPM_P1;HPM_P2
2022/01/06 00:01:52;;;;;;;14.40;7.00;;;3.90;99.90;;;;;;4991596;28;20846;-75
2022/01/06 00:04:18;;;;;;;14.23;6.23;;;3.90;99.90;;;;;;4993596;28;20407;-76
2022/01/06 00:06:43;;;;;;;13.30;6.47;;;3.90;99.90;;;;;;4991971;28;20498;-75
2022/01/06 00:09:14;;;;;;;16.70;6.37;;;3.90;99.90;;;;;;4975550;28;20175;-75
2022/01/06 00:11:39;;;;;;;17.63;5.70;;;3.90;99.90;;;;;;4993154;28;20187;-75
2022/01/06 00:16:59;;;;;;;19.47;7.73;;;3.90;99.90;;;;;;4991652;28;20215;-75
2022/01/06 00:24:54;;;;;;;16.07;6.03;;;3.80;99.90;;;;;;4992611;28;20415;-76
2022/01/06 00:27:19;;;;;;;20.93;6.33;;;3.80;99.90;;;;;;4991996;28;20437;-76
2022/01/06 00:29:45;;;;;;;8.87;5.77;;;3.90;99.90;;;;;;4975173;28;20499;-75
2022/01/06 00:32:11;;;;;;;15.87;6.20;;;3.80;99.90;;;;;;4992688;28;20164;-76
2022/01/06 00:34:36;;;;;;;13.63;6.10;;;3.80;99.90;;;;;;4992121;28;20168;-76
2022/01/06 00:37:03;;;;;;;14.97;5.40;;;3.80;99.90;;;;;;4992037;28;20194;-76
2022/01/06 00:39:29;;;;;;;8.97;4.30;;;3.80;99.90;;;;;;4991468;28;20303;-76
2022/01/06 00:42:01;;;;;;;22.33;4.90;;;3.80;99.90;;;;;;4975175;28;20932;-74
2022/01/06 00:44:26;;;;;;;13.27;4.70;;;3.80;99.90;;;;;;4995646;28;20908;-76
2022/01/06 00:46:53;;;;;;;9.03;3.57;;;3.80;99.90;;;;;;4978325;28;20427;-76
2022/01/06 00:49:20;;;;;;;8.20;3.03;;;3.70;99.90;;;;;;4995800;28;20175;-75
2022/01/06 00:51:46;;;;;;;12.10;4.17;;;3.80;99.90;;;;;;4995874;28;20429;-76
2022/01/06 00:54:13;;;;;;;14.43;3.63;;;3.80;99.90;;;;;;4995698;28;20469;-74
2022/01/06 00:56:38;;;;;;;10.97;5.03;;;3.80;99.90;;;;;;4999163;28;20481;-75
2022/01/06 00:59:04;;;;;;;7.53;4.13;;;3.80;99.90;;;;;;4997100;28;20454;-75
2022/01/06 01:01:30;;;;;;;7.80;4.43;;;3.80;99.90;;;;;;4997523;28;20175;-75
2022/01/06 01:03:56;;;;;;;11.53;3.40;;;3.80;99.90;;;;;;4998433;28;20172;-75
2022/01/06 01:06:22;;;;;;;19.03;4.50;;;3.90;99.90;;;;;;4996946;28;20922;-76
2022/01/06 01:08:48;;;;;;;12.87;3.90;;;3.90;99.90;;;;;;4995711;28;20461;-74
2022/01/06 01:11:13;;;;;;;10.53;3.73;;;3.90;99.90;;;;;;4995338;28;20168;-76
2022/01/06 01:13:55;;;;;;;15.70;3.80;;;3.90;99.90;;;;;;4995151;28;20168;-74
2022/01/06 01:16:30;;;;;;;10.00;3.13;;;4.00;99.90;;;;;;4994680;28;20226;-75
2022/01/06 01:18:57;;;;;;;16.40;4.30;;;4.00;99.90;;;;;;4994037;28;20492;-76
2022/01/06 01:21:26;;;;;;;19.00;3.50;;;4.00;99.90;;;;;;4995817;28;20419;-77
2022/01/06 01:23:56;;;;;;;10.50;3.73;;;4.00;99.90;;;;;;4995525;28;20410;-74
2022/01/06 01:26:23;;;;;;;16.77;3.67;;;4.00;99.90;;;;;;4995280;28;20436;-76
2022/01/06 01:28:50;;;;;;;10.07;3.10;;;4.00;99.90;;;;;;4994916;28;20915;-74
2022/01/06 01:33:45;;;;;;;9.93;3.20;;;3.90;99.90;;;;;;4994925;28;20463;-76
2022/01/06 01:36:11;;;;;;;7.00;2.73;;;3.80;99.90;;;;;;4993063;28;20736;-76
2022/01/06 01:38:38;;;;;;;14.93;2.10;;;3.80;99.90;;;;;;4994998;28;20448;-75
2022/01/06 01:41:05;;;;;;;11.10;3.10;;;3.80;99.90;;;;;;4994398;28;20411;-76
2022/01/06 01:43:31;;;;;;;15.10;2.57;;;3.70;99.90;;;;;;4993069;28;20430;-76
2022/01/06 01:45:58;;;;;;;10.97;2.13;;;3.70;99.90;;;;;;4994278;28;20411;-76
2022/01/06 01:48:32;;;;;;;18.60;2.27;;;3.80;99.90;;;;;;4993478;28;20422;-75
2022/01/06 01:50:58;;;;;;;8.60;3.97;;;3.70;99.90;;;;;;4976806;28;20569;-75
2022/01/06 01:53:23;;;;;;;8.77;3.10;;;3.70;99.90;;;;;;4992922;28;20462;-75
2022/01/06 01:55:51;;;;;;;20.97;3.73;;;3.70;99.90;;;;;;4976374;28;20183;-75
2022/01/06 01:58:18;;;;;;;13.23;2.90;;;3.70;99.90;;;;;;4994685;28;20281;-75
2022/01/06 02:00:43;;;;;;;12.20;2.50;;;3.60;99.90;;;;;;4976974;28;20417;-75
2022/01/06 02:03:09;;;;;;;12.03;2.73;;;3.60;99.90;;;;;;4995141;28;20403;-75
2022/01/06 02:05:35;;;;;;;6.80;1.90;;;3.60;99.90;;;;;;4994695;28;20160;-75
2022/01/06 02:08:02;;;;;;;7.63;2.83;;;3.60;99.90;;;;;;4976854;28;20199;-75
2022/01/06 02:10:30;;;;;;;13.10;2.90;;;3.70;99.90;;;;;;4992929;28;20580;-75
2022/01/06 02:12:57;;;;;;;11.07;2.20;;;3.70;99.90;;;;;;4994028;28;20425;-74
2022/01/06 02:15:23;;;;;;;11.20;2.47;;;3.60;99.90;;;;;;4994685;28;21145;-75
2022/01/06 02:17:49;;;;;;;7.50;1.83;;;3.60;99.90;;;;;;4994189;28;20466;-75
2022/01/06 02:20:17;;;;;;;9.17;2.40;;;3.60;99.90;;;;;;4993378;28;20407;-75
2022/01/06 02:22:45;;;;;;;14.67;3.70;;;3.60;99.90;;;;;;4975908;28;20192;-75
2022/01/06 02:25:19;;;;;;;14.03;2.50;;;3.60;99.90;;;;;;4992292;28;20501;-75
2022/01/06 02:27:51;;;;;;;9.47;1.60;;;3.60;99.90;;;;;;4994472;28;20438;-76
2022/01/06 02:30:19;;;;;;;15.53;2.57;;;3.60;99.90;;;;;;4994123;28;20469;-75
2022/01/06 02:32:45;;;;;;;16.97;2.90;;;3.60;99.90;;;;;;4991885;28;20453;-75
2022/01/06 02:35:17;;;;;;;9.60;2.77;;;3.60;99.90;;;;;;4975557;28;20836;-76
2022/01/06 02:37:43;;;;;;;5.40;2.17;;;3.70;99.90;;;;;;4992995;28;20466;-74
2022/01/06 02:40:15;;;;;;;8.63;2.30;;;3.70;99.90;;;;;;4975902;28;20461;-75
2022/01/06 02:42:42;;;;;;;9.63;2.40;;;3.70;99.90;;;;;;4992203;28;20480;-75
2022/01/06 02:45:09;;;;;;;10.90;2.50;;;3.80;99.90;;;;;;4992980;28;20421;-75
2022/01/06 02:47:35;;;;;;;4.37;1.90;;;3.80;99.90;;;;;;4993015;28;20463;-75
2022/01/06 02:50:01;;;;;;;10.87;2.50;;;3.90;99.90;;;;;;4993206;28;20415;-74
2022/01/06 02:52:26;;;;;;;11.37;1.77;;;3.90;99.90;;;;;;4993106;28;20172;-75
2022/01/06 02:54:52;;;;;;;14.30;2.30;;;3.90;99.90;;;;;;4976006;28;20178;-75
2022/01/06 02:57:18;;;;;;;8.63;3.77;;;4.00;99.90;;;;;;4975539;28;20199;-74
2022/01/06 02:59:43;;;;;;;11.90;2.57;;;4.00;99.90;;;;;;4992985;28;20211;-76
2022/01/06 03:02:09;;;;;;;9.87;2.37;;;4.00;99.90;;;;;;4992958;28;20172;-75
2022/01/06 03:04:35;;;;;;;13.80;3.40;;;4.00;99.90;;;;;;4975859;28;20172;-75
2022/01/06 03:07:01;;;;;;;9.20;3.67;;;4.00;99.90;;;;;;4991801;28;20179;-75
2022/01/06 03:09:40;;;;;;;11.43;3.60;;;4.00;99.90;;;;;;4992878;28;20168;-76
2022/01/06 03:12:12;;;;;;;11.47;2.30;;;4.00;99.90;;;;;;4992876;28;20414;-75
2022/01/06 03:14:37;;;;;;;14.13;2.67;;;4.00;99.90;;;;;;4993148;28;20493;-75
2022/01/06 03:17:04;;;;;;;7.80;1.93;;;4.00;99.90;;;;;;4993346;28;20941;-75
2022/01/06 03:19:30;;;;;;;8.47;2.03;;;4.00;99.90;;;;;;4993455;28;20326;-76
2022/01/06 03:21:56;;;;;;;8.57;2.73;;;4.00;99.90;;;;;;4993896;28;20496;-75
2022/01/06 03:24:21;;;;;;;7.20;1.87;;;4.00;99.90;;;;;;4976536;28;20417;-76
2022/01/06 03:26:47;;;;;;;8.60;2.20;;;4.00;99.90;;;;;;4993666;28;20211;-76
2022/01/06 03:29:13;;;;;;;10.50;2.30;;;4.10;99.90;;;;;;4997668;28;20677;-75
2022/01/06 03:31:39;;;;;;;11.33;2.53;;;4.10;99.90;;;;;;4999497;28;20422;-75
2022/01/06 03:34:05;;;;;;;8.80;2.83;;;4.20;99.90;;;;;;4997240;28;20419;-75
2022/01/06 03:36:30;;;;;;;8.07;1.53;;;4.20;99.90;;;;;;4975294;28;20226;-75
2022/01/06 03:38:56;;;;;;;6.50;1.80;;;4.20;99.80;;;;;;4973749;28;20199;-75
2022/01/06 03:41:28;;;;;;;7.03;2.17;;;4.20;99.70;;;;;;4990659;28;20200;-75
2022/01/06 03:43:53;;;;;;;8.27;3.27;;;4.20;99.50;;;;;;4991008;28;20168;-75
2022/01/06 03:46:19;;;;;;;12.87;2.40;;;4.20;99.30;;;;;;4973904;28;20482;-75
2022/01/06 03:48:45;;;;;;;9.20;2.47;;;4.20;99.10;;;;;;4990780;28;20219;-74
2022/01/06 03:51:10;;;;;;;7.03;1.93;;;4.10;99.20;;;;;;4991792;28;20168;-76
2022/01/06 03:53:36;;;;;;;15.90;2.67;;;4.10;99.20;;;;;;4990414;28;20168;-75
2022/01/06 03:56:02;;;;;;;11.93;2.23;;;4.10;99.20;;;;;;4990359;28;20262;-75
2022/01/06 03:58:27;;;;;;;16.60;2.93;;;4.10;99.20;;;;;;4992959;28;20199;-76
2022/01/06 04:00:53;;;;;;;12.63;2.87;;;4.10;99.30;;;;;;4977260;28;20168;-75
2022/01/06 04:03:19;;;;;;;10.30;2.73;;;4.10;99.10;;;;;;4992264;28;20160;-75
2022/01/06 04:05:44;;;;;;;11.37;2.30;;;4.20;99.10;;;;;;4994820;28;20191;-75
2022/01/06 04:08:10;;;;;;;9.70;2.77;;;4.20;99.10;;;;;;4993827;28;20196;-75
2022/01/06 04:10:36;;;;;;;12.80;2.70;;;4.20;98.90;;;;;;4990123;28;20650;-76
2022/01/06 04:13:02;;;;;;;15.37;2.23;;;4.20;98.90;;;;;;4974464;28;20684;-75
2022/01/06 04:15:27;;;;;;;8.30;2.50;;;4.20;98.80;;;;;;4990921;28;20179;-75
2022/01/06 04:17:53;;;;;;;10.93;2.73;;;4.10;98.70;;;;;;4991069;28;20458;-75
2022/01/06 04:20:19;;;;;;;17.60;4.57;;;4.10;98.70;;;;;;4974183;28;20168;-75
2022/01/06 04:22:45;;;;;;;10.07;2.70;;;4.00;98.70;;;;;;4991692;28;20172;-75
2022/01/06 04:25:11;;;;;;;7.33;2.60;;;4.00;98.80;;;;;;4992171;28;20175;-75
2022/01/06 04:27:37;;;;;;;9.73;2.23;;;4.00;98.90;;;;;;4991274;28;20423;-74
2022/01/06 04:30:06;;;;;;;10.83;1.80;;;4.00;99.00;;;;;;4974370;28;20758;-74
2022/01/06 04:32:32;;;;;;;8.47;2.20;;;4.00;98.90;;;;;;4990772;28;20947;-75
2022/01/06 04:34:58;;;;;;;11.40;3.13;;;4.00;98.90;;;;;;4973497;28;20415;-75
2022/01/06 04:37:26;;;;;;;11.87;2.63;;;4.10;98.90;;;;;;4989601;28;20518;-75
2022/01/06 04:39:51;;;;;;;7.33;2.30;;;4.10;98.80;;;;;;4973944;28;20411;-75
2022/01/06 04:42:17;;;;;;;20.93;3.67;;;4.10;98.70;;;;;;4991004;28;20565;-74
2022/01/06 04:44:43;;;;;;;14.40;2.40;;;4.10;98.50;;;;;;4991499;28;20164;-74
2022/01/06 04:47:09;;;;;;;14.03;2.60;;;4.10;98.50;;;;;;4972890;28;20192;-76
2022/01/06 04:49:34;;;;;;;14.20;3.40;;;4.10;98.50;;;;;;4992299;28;20295;-75
2022/01/06 04:52:01;;;;;;;7.53;1.63;;;4.00;98.50;;;;;;4991465;28;20219;-75
2022/01/06 04:54:26;;;;;;;12.57;3.00;;;4.00;98.30;;;;;;4991877;28;20172;-76
2022/01/06 04:56:52;;;;;;;17.00;2.30;;;4.00;98.70;;;;;;4991133;28;20438;-76
2022/01/06 04:59:18;;;;;;;14.77;2.77;;;3.90;98.30;;;;;;4991187;28;20235;-74
2022/01/06 05:01:43;;;;;;;6.33;1.80;;;3.90;98.30;;;;;;4991333;28;20254;-75
2022/01/06 05:04:09;;;;;;;10.47;2.47;;;3.80;98.30;;;;;;4973735;28;20214;-75
2022/01/06 05:06:35;;;;;;;9.03;2.40;;;3.80;98.40;;;;;;4974190;28;20194;-76
2022/01/06 05:09:01;;;;;;;16.33;2.73;;;3.70;98.60;;;;;;4990327;28;20422;-76
2022/01/06 05:11:27;;;;;;;8.30;2.20;;;3.70;98.60;;;;;;4974474;28;20224;-74
2022/01/06 05:13:52;;;;;;;14.23;3.27;;;3.60;98.60;;;;;;4991786;28;20258;-77
2022/01/06 05:16:18;;;;;;;6.77;2.87;;;3.60;98.70;;;;;;4990845;28;20565;-74
2022/01/06 05:18:44;;;;;;;11.60;2.67;;;3.50;98.80;;;;;;5000420;28;20187;-74
2022/01/06 05:21:10;;;;;;;8.67;2.97;;;3.50;98.80;;;;;;4992998;28;20182;-76
2022/01/06 05:23:36;;;;;;;13.60;2.80;;;3.50;98.90;;;;;;5010829;28;20251;-74
2022/01/06 05:26:01;;;;;;;6.20;2.50;;;3.40;98.90;;;;;;5008998;28;20467;-77
2022/01/06 05:28:27;;;;;;;9.73;2.70;;;3.40;99.10;;;;;;5009503;28;20183;-75
2022/01/06 05:30:53;;;;;;;7.57;2.73;;;3.30;99.10;;;;;;5014510;28;20170;-75
2022/01/06 05:33:19;;;;;;;11.60;4.57;;;3.30;99.20;;;;;;4997355;28;20178;-75
2022/01/06 05:35:45;;;;;;;10.67;3.90;;;3.30;99.30;;;;;;5014048;28;20225;-76
2022/01/06 05:38:11;;;;;;;12.00;3.57;;;3.30;99.40;;;;;;4997018;28;20245;-75
2022/01/06 05:40:37;;;;;;;17.13;2.87;;;3.30;99.50;;;;;;5013014;28;20446;-76
2022/01/06 05:43:02;;;;;;;12.80;2.90;;;3.30;99.50;;;;;;4996720;28;20270;-75
2022/01/06 05:45:29;;;;;;;8.43;2.90;;;3.40;99.60;;;;;;5015025;28;20222;-76
2022/01/06 05:47:55;;;;;;;6.30;2.47;;;3.40;99.60;;;;;;4997664;28;20525;-76
2022/01/06 05:50:21;;;;;;;15.83;3.17;;;3.50;99.50;;;;;;5013203;28;20453;-74
2022/01/06 05:52:46;;;;;;;14.07;2.57;;;3.50;99.50;;;;;;5014887;28;20222;-75
2022/01/06 05:55:12;;;;;;;11.13;3.90;;;3.50;99.40;;;;;;4996155;28;20922;-74
2022/01/06 05:57:38;;;;;;;19.40;3.70;;;3.60;99.40;;;;;;5014413;28;20444;-75
2022/01/06 06:00:07;;;;;;;13.63;3.07;;;3.60;99.40;;;;;;5012707;28;20171;-75
2022/01/06 06:02:33;;;;;;;8.03;3.80;;;3.60;99.30;;;;;;5013700;28;20466;-76
2022/01/06 06:04:58;;;;;;;9.50;3.90;;;3.60;99.20;;;;;;5011964;28;20965;-75
2022/01/06 06:07:24;;;;;;;11.57;3.00;;;3.70;99.20;;;;;;5013609;28;20554;-75
2022/01/06 06:09:50;;;;;;;14.30;4.10;;;3.70;99.10;;;;;;5012614;28;20210;-75
2022/01/06 06:12:17;;;;;;;12.20;3.90;;;3.70;99.00;;;;;;5013401;28;20171;-75
2022/01/06 06:14:42;;;;;;;12.20;3.77;;;3.70;99.00;;;;;;4994786;28;20421;-75
2022/01/06 06:17:08;;;;;;;18.10;3.90;;;3.70;98.90;;;;;;5012877;28;20426;-76
2022/01/06 06:19:34;;;;;;;11.50;4.23;;;3.70;98.80;;;;;;4995708;28;20606;-75
2022/01/06 06:22:00;;;;;;;15.53;4.07;;;3.60;98.80;;;;;;5009109;28;20178;-75
2022/01/06 06:24:25;;;;;;;11.13;4.13;;;3.50;98.70;;;;;;5013469;28;20163;-74
2022/01/06 06:26:52;;;;;;;17.13;4.87;;;3.50;98.80;;;;;;5013365;28;20270;-74
2022/01/06 06:29:18;;;;;;;22.60;5.00;;;3.40;99.00;;;;;;5001587;28;20258;-74
2022/01/06 06:31:44;;;;;;;12.87;3.93;;;3.30;99.10;;;;;;5004938;28;20426;-76
2022/01/06 06:34:11;;;;;;;15.43;5.33;;;3.30;99.30;;;;;;5013841;28;20532;-76
2022/01/06 06:36:37;;;;;;;16.27;5.80;;;3.30;99.50;;;;;;5013865;28;20195;-76
2022/01/06 06:39:04;;;;;;;17.83;3.97;;;3.30;99.70;;;;;;5005655;28;20458;-75
2022/01/06 06:41:29;;;;;;;12.87;3.87;;;3.30;99.60;;;;;;5011445;28;20981;-76
2022/01/06 06:43:55;;;;;;;17.40;5.00;;;3.30;99.50;;;;;;5018780;28;20422;-74
2022/01/06 06:46:21;;;;;;;21.33;6.40;;;3.30;99.50;;;;;;5015661;28;20186;-74
2022/01/06 06:48:47;;;;;;;28.57;7.90;;;3.20;99.50;;;;;;4995210;28;20167;-75
2022/01/06 06:51:13;;;;;;;13.83;6.93;;;3.20;99.50;;;;;;5012998;28;20436;-75
2022/01/06 06:53:40;;;;;;;30.93;12.07;;;3.20;99.60;;;;;;4995454;28;20418;-76
2022/01/06 06:56:06;;;;;;;34.13;8.93;;;3.10;99.70;;;;;;5008845;28;20448;-76
2022/01/06 06:58:31;;;;;;;10.53;6.47;;;3.10;99.80;;;;;;4992903;28;20457;-75
2022/01/06 07:00:57;;;;;;;16.10;4.00;;;3.00;99.80;;;;;;5011736;28;20199;-76
2022/01/06 07:03:23;;;;;;;14.33;5.30;;;3.00;99.90;;;;;;5004113;28;20183;-76
2022/01/06 07:05:49;;;;;;;23.67;6.13;;;3.00;99.90;;;;;;4994765;28;20510;-75
2022/01/06 07:08:15;;;;;;;17.60;6.43;;;3.00;99.90;;;;;;4988008;28;20484;-75
2022/01/06 07:10:40;;;;;;;16.00;5.80;;;2.90;99.90;;;;;;5016087;28;20712;-75
2022/01/06 07:13:06;;;;;;;25.13;5.80;;;2.90;99.90;;;;;;4995168;28;20206;-74
2022/01/06 07:15:34;;;;;;;12.10;4.90;;;3.00;99.90;;;;;;5011151;28;20245;-75
2022/01/06 07:17:59;;;;;;;16.80;5.20;;;3.00;99.90;;;;;;4994882;28;20301;-75
2022/01/06 07:20:25;;;;;;;9.80;4.40;;;3.10;99.90;;;;;;5013272;28;20445;-75
2022/01/06 07:22:52;;;;;;;17.90;5.10;;;3.10;99.90;;;;;;5015268;28;20167;-74
2022/01/06 07:25:18;;;;;;;21.47;5.40;;;3.20;99.90;;;;;;4996343;28;20198;-74
2022/01/06 07:27:44;;;;;;;29.57;6.20;;;3.30;99.90;;;;;;5012787;28;20445;-74
2022/01/06 07:30:10;;;;;;;24.03;7.90;;;3.30;99.90;;;;;;5012469;28;20168;-75
2022/01/06 07:32:47;;;;;;;22.90;8.87;;;3.30;99.80;;;;;;5013806;28;20162;-74
2022/01/06 07:35:15;;;;;;;19.60;7.33;;;3.30;99.90;;;;;;4979462;28;20422;-76
2022/01/06 07:37:40;;;;;;;29.73;8.17;;;3.30;99.80;;;;;;5014263;28;20437;-74
2022/01/06 07:40:08;;;;;;;29.77;8.60;;;3.30;99.70;;;;;;5012955;28;20418;-74
2022/01/06 07:42:34;;;;;;;19.57;7.20;;;3.30;99.70;;;;;;5012009;28;20630;-75
2022/01/06 07:45:00;;;;;;;30.83;8.93;;;3.30;99.70;;;;;;4995444;28;20445;-76
2022/01/06 07:47:28;;;;;;;34.30;11.00;;;3.30;99.80;;;;;;5012913;28;20453;-75
2022/01/06 07:49:54;;;;;;;33.67;12.37;;;3.30;99.80;;;;;;4996962;28;20484;-75
2022/01/06 07:52:21;;;;;;;33.87;13.33;;;3.30;99.90;;;;;;5012033;28;20418;-75
2022/01/06 07:54:47;;;;;;;49.27;17.73;;;3.30;99.90;;;;;;5013610;28;20490;-76
2022/01/06 07:57:14;;;;;;;40.33;13.13;;;3.30;99.90;;;;;;5009843;28;20457;-75
2022/01/06 07:59:40;;;;;;;30.00;11.37;;;3.30;99.90;;;;;;5012785;28;20449;-76
2022/01/06 08:02:07;;;;;;;51.00;13.87;;;3.40;99.90;;;;;;4996033;28;20430;-76
2022/01/06 08:04:34;;;;;;;32.73;12.70;;;3.40;99.80;;;;;;5014163;28;20436;-75
2022/01/06 08:07:00;;;;;;;38.60;14.97;;;3.40;99.70;;;;;;5013373;28;20436;-75
2022/01/06 08:09:25;;;;;;;37.00;14.60;;;3.40;99.70;;;;;;5011555;28;20517;-74
2022/01/06 08:11:51;;;;;;;45.83;20.03;;;3.50;99.70;;;;;;5017533;28;20163;-74
2022/01/06 08:14:18;;;;;;;57.63;19.67;;;3.50;99.70;;;;;;5012692;28;20190;-75
2022/01/06 08:16:43;;;;;;;64.17;25.37;;;3.50;99.60;;;;;;5013134;28;20253;-74
2022/01/06 08:19:09;;;;;;;75.20;27.40;;;3.60;99.60;;;;;;5013440;28;20465;-73
2022/01/06 08:21:35;;;;;;;33.23;14.23;;;3.70;99.70;;;;;;5012874;28;20629;-74
2022/01/06 08:24:00;;;;;;;54.00;22.50;;;3.80;99.40;;;;;;4996873;28;20234;-73
2022/01/06 08:26:26;;;;;;;72.90;30.53;;;3.90;99.40;;;;;;5014110;28;20194;-75
2022/01/06 08:28:52;;;;;;;50.47;20.37;;;4.00;99.30;;;;;;5013195;28;20518;-73
2022/01/06 08:31:17;;;;;;;74.07;24.60;;;4.10;99.10;;;;;;5013283;28;20265;-73
2022/01/06 08:33:45;;;;;;;49.53;18.30;;;4.20;99.20;;;;;;5013767;28;20167;-73
2022/01/06 08:36:10;;;;;;;70.37;24.73;;;4.20;98.60;;;;;;5013429;28;20179;-74
2022/01/06 08:38:36;;;;;;;73.97;26.47;;;4.30;98.70;;;;;;5015179;28;20519;-74
2022/01/06 08:41:02;;;;;;;61.87;19.40;;;4.40;98.30;;;;;;5011525;28;20205;-73
2022/01/06 08:43:28;;;;;;;76.03;25.40;;;4.40;98.00;;;;;;5013951;28;20190;-73
2022/01/06 08:45:55;;;;;;;70.53;20.60;;;4.50;97.90;;;;;;5008449;28;20492;-73
2022/01/06 08:48:21;;;;;;;58.07;21.60;;;4.50;97.90;;;;;;4997448;28;20402;-74
2022/01/06 08:50:47;;;;;;;74.27;24.33;;;4.50;97.70;;;;;;5006075;28;20488;-75
2022/01/06 08:53:13;;;;;;;76.33;26.77;;;4.50;97.60;;;;;;5014930;28;20199;-75
2022/01/06 08:55:38;;;;;;;171.50;47.50;;;4.50;97.50;;;;;;5013994;28;20181;-75
2022/01/06 08:58:04;;;;;;;145.03;40.40;;;4.60;97.60;;;;;;5015650;28;20285;-76
2022/01/06 09:00:30;;;;;;;120.20;36.83;;;4.70;98.10;;;;;;5017605;28;20167;-76
2022/01/06 09:02:57;;;;;;;99.63;34.60;;;5.10;99.30;;;;;;5017216;28;20179;-75
2022/01/06 09:05:23;;;;;;;99.03;34.03;;;5.30;96.90;;;;;;5021459;28;20453;-74
2022/01/06 09:07:49;;;;;;;107.40;34.87;;;5.40;96.00;;;;;;5022446;28;20947;-75
2022/01/06 09:10:15;;;;;;;70.80;25.07;;;5.50;95.70;;;;;;5018032;28;20434;-75
2022/01/06 09:12:42;;;;;;;51.00;17.50;;;5.60;95.20;;;;;;5017494;28;20497;-75
2022/01/06 09:15:09;;;;;;;42.03;16.57;;;5.60;95.00;;;;;;5003012;28;20461;-75
2022/01/06 09:17:36;;;;;;;49.03;20.17;;;5.70;94.80;;;;;;5005364;28;20434;-74
2022/01/06 09:20:07;;;;;;;51.67;16.33;;;5.70;94.40;;;;;;5004709;28;20502;-75
2022/01/06 09:22:32;;;;;;;32.00;13.63;;;5.70;94.30;;;;;;5022591;28;20839;-74
2022/01/06 09:24:58;;;;;;;22.50;10.00;;;5.80;94.40;;;;;;5019720;28;20434;-76
2022/01/06 09:27:24;;;;;;;18.97;7.60;;;5.80;94.10;;;;;;5015512;28;20281;-76
2022/01/06 09:29:53;;;;;;;17.70;6.83;;;5.90;94.10;;;;;;5016031;28;20163;-77
2022/01/06 09:32:19;;;;;;;18.13;6.27;;;6.30;94.80;;;;;;5015108;28;20425;-75
2022/01/06 09:34:45;;;;;;;14.50;5.93;;;6.70;93.80;;;;;;5015636;28;20479;-77
2022/01/06 09:37:11;;;;;;;10.50;6.60;;;7.40;93.30;;;;;;5014747;28;20906;-75
2022/01/06 09:39:37;;;;;;;13.50;5.77;;;8.40;91.90;;;;;;5015010;28;20230;-74
2022/01/06 09:42:03;;;;;;;11.97;4.73;;;9.50;89.40;;;;;;5012745;28;20441;-75
2022/01/06 09:44:29;;;;;;;11.83;6.63;;;10.40;81.50;;;;;;4997034;28;20201;-75
2022/01/06 09:46:55;;;;;;;12.27;6.20;;;11.10;77.30;;;;;;5014054;28;20858;-77
2022/01/06 09:49:22;;;;;;;20.27;6.73;;;11.50;72.00;;;;;;4999762;28;20441;-77
2022/01/06 09:51:47;;;;;;;17.77;7.10;;;11.60;68.20;;;;;;5017262;28;20438;-74
2022/01/06 09:54:13;;;;;;;11.50;5.93;;;11.50;67.80;;;;;;5016034;28;20510;-75
2022/01/06 09:56:39;;;;;;;21.57;6.90;;;11.60;68.20;;;;;;5017029;28;20485;-77
2022/01/06 09:59:05;;;;;;;10.47;6.13;;;11.90;66.70;;;;;;5015814;28;20522;-75
2022/01/06 10:01:31;;;;;;;11.50;6.23;;;11.60;62.70;;;;;;5017921;28;20278;-76
2022/01/06 10:03:58;;;;;;;16.30;7.97;;;10.90;63.10;;;;;;5019338;28;20409;-76
2022/01/06 10:06:28;;;;;;;12.63;7.03;;;10.10;66.60;;;;;;5014295;28;20249;-75
2022/01/06 10:08:56;;;;;;;16.13;6.23;;;9.80;71.30;;;;;;5018687;28;20429;-76
2022/01/06 10:11:25;;;;;;;13.80;6.70;;;9.50;71.30;;;;;;5016234;28;20422;-74
2022/01/06 10:14:05;;;;;;;13.80;6.73;;;9.10;72.60;;;;;;5014650;28;20527;-75
2022/01/06 10:16:32;;;;;;;15.80;5.70;;;8.80;74.30;;;;;;5015984;28;20504;-76
2022/01/06 10:19:03;;;;;;;11.00;5.10;;;8.40;75.70;;;;;;5014973;28;20458;-75
2022/01/06 10:21:49;;;;;;;11.63;6.07;;;8.10;77.70;;;;;;5013112;28;20416;-75
2022/01/06 10:24:22;;;;;;;17.70;7.17;;;7.80;79.50;;;;;;5014363;28;20409;-76
2022/01/06 10:27:06;;;;;;;25.13;11.30;;;7.60;80.70;;;;;;5013799;28;20453;-76
2022/01/06 10:29:48;;;;;;;19.27;7.77;;;7.50;82.40;;;;;;5013431;28;20437;-76
2022/01/06 10:32:17;;;;;;;14.33;5.57;;;7.50;83.20;;;;;;5015154;28;20436;-76
2022/01/06 10:34:48;;;;;;;16.50;7.20;;;7.50;83.70;;;;;;5016374;28;20490;-75
2022/01/06 10:37:20;;;;;;;13.50;6.60;;;7.40;84.30;;;;;;5014367;28;20962;-76
2022/01/06 10:39:48;;;;;;;14.57;6.37;;;7.30;82.90;;;;;;5015730;28;20454;-76
2022/01/06 10:42:13;;;;;;;15.30;6.30;;;7.10;84.30;;;;;;4996887;28;20969;-75
2022/01/06 10:44:46;;;;;;;19.73;6.37;;;7.00;85.20;;;;;;5013429;28;20494;-76
2022/01/06 10:47:12;;;;;;;12.13;6.47;;;6.80;86.10;;;;;;5012978;28;20195;-76
2022/01/06 10:49:38;;;;;;;14.03;6.23;;;6.70;86.40;;;;;;5014924;28;20421;-74
2022/01/06 10:52:03;;;;;;;14.37;5.93;;;6.70;87.30;;;;;;4999242;28;20199;-77
2022/01/06 10:54:29;;;;;;;13.00;6.10;;;6.60;87.50;;;;;;4998137;28;20324;-77
2022/01/06 10:57:07;;;;;;;14.17;6.20;;;6.50;87.80;;;;;;5014876;28;20195;-77
2022/01/06 10:59:34;;;;;;;16.50;6.43;;;6.40;88.20;;;;;;5015440;28;20699;-77
2022/01/06 11:02:01;;;;;;;12.77;6.80;;;6.30;88.70;;;;;;5014732;28;20429;-76
2022/01/06 11:04:28;;;;;;;13.53;7.43;;;6.20;89.10;;;;;;5013234;28;20460;-75
2022/01/06 11:06:54;;;;;;;25.50;7.90;;;6.20;89.50;;;;;;5013614;28;20445;-75
2022/01/06 11:09:21;;;;;;;24.83;9.10;;;6.10;90.00;;;;;;5014438;28;20531;-74
2022/01/06 11:14:25;;;;;;;24.70;12.00;;;6.10;90.50;;;;;;5013436;28;20434;-75
2022/01/06 11:16:51;;;;;;;25.57;9.17;;;6.10;90.70;;;;;;5012995;28;20745;-76
2022/01/06 11:19:17;;;;;;;23.17;10.60;;;6.10;90.60;;;;;;5012933;28;20456;-76
2022/01/06 11:21:48;;;;;;;19.23;8.37;;;6.10;90.80;;;;;;5012506;28;20410;-76
2022/01/06 11:24:17;;;;;;;16.23;7.40;;;6.00;90.90;;;;;;4980166;28;20495;-77
2022/01/06 11:26:56;;;;;;;24.87;12.77;;;5.90;90.90;;;;;;5013424;28;20426;-76
2022/01/06 11:29:34;;;;;;;16.60;8.10;;;5.80;91.00;;;;;;5013276;28;20553;-77
2022/01/06 11:32:02;;;;;;;19.63;10.67;;;5.80;91.20;;;;;;4997385;28;20425;-75
2022/01/06 11:34:29;;;;;;;16.63;8.20;;;5.80;91.50;;;;;;5010671;28;20530;-75
2022/01/06 11:36:56;;;;;;;19.90;7.33;;;5.80;91.70;;;;;;5011295;28;20434;-74
2022/01/06 11:39:25;;;;;;;22.23;7.80;;;6.00;92.00;;;;;;5013260;28;20458;-74
2022/01/06 11:41:52;;;;;;;15.70;6.57;;;6.10;92.40;;;;;;5013015;28;20971;-74
2022/01/06 11:44:31;;;;;;;16.07;7.63;;;6.30;92.20;;;;;;5009817;28;20507;-74
2022/01/06 11:46:59;;;;;;;16.30;5.60;;;6.40;92.10;;;;;;5007296;28;20433;-74
2022/01/06 11:49:29;;;;;;;17.77;9.10;;;6.50;91.70;;;;;;5009211;28;20807;-76
2022/01/06 11:52:04;;;;;;;16.50;6.53;;;6.60;91.70;;;;;;5001235;28;20567;-74
2022/01/06 11:54:30;;;;;;;21.83;9.30;;;6.70;91.40;;;;;;4994103;28;20757;-74
2022/01/06 11:56:57;;;;;;;18.80;6.80;;;6.70;91.20;;;;;;4992922;28;20442;-75
2022/01/06 11:59:33;;;;;;;19.63;6.53;;;6.80;91.20;;;;;;4993335;28;20469;-77
2022/01/06 12:01:59;;;;;;;21.00;8.87;;;6.90;91.20;;;;;;4996428;28;21189;-75
2022/01/06 12:04:26;;;;;;;12.93;6.43;;;7.10;91.40;;;;;;5013542;28;20461;-76
2022/01/06 12:07:04;;;;;;;15.07;6.83;;;7.20;91.40;;;;;;5014899;28;20573;-75
2022/01/06 12:09:30;;;;;;;12.57;7.07;;;7.30;91.00;;;;;;5013188;28;20409;-75
2022/01/06 12:12:05;;;;;;;18.93;6.90;;;7.30;91.00;;;;;;4995902;28;20755;-75
2022/01/06 12:14:32;;;;;;;25.97;6.47;;;7.50;90.90;;;;;;5014697;28;20206;-75
2022/01/06 12:17:05;;;;;;;25.93;8.70;;;7.50;90.30;;;;;;5014319;28;20469;-75
2022/01/06 12:19:31;;;;;;;18.57;7.77;;;7.50;90.00;;;;;;5014692;28;20500;-76
2022/01/06 12:21:57;;;;;;;19.67;7.83;;;7.50;89.80;;;;;;5013837;28;20413;-75
2022/01/06 12:24:23;;;;;;;18.60;6.30;;;7.30;90.00;;;;;;4997111;28;20402;-76
2022/01/06 12:26:49;;;;;;;17.20;7.43;;;7.10;90.30;;;;;;5013041;28;20436;-74
2022/01/06 12:29:25;;;;;;;15.63;6.30;;;7.00;90.70;;;;;;5012295;28;20186;-75
2022/01/06 12:32:01;;;;;;;18.73;6.47;;;6.90;91.10;;;;;;5013647;28;20620;-76
2022/01/06 12:34:27;;;;;;;10.47;6.17;;;6.80;91.60;;;;;;5013340;28;20495;-75
2022/01/06 12:36:52;;;;;;;13.40;5.83;;;6.80;91.80;;;;;;5015773;28;20454;-76
2022/01/06 12:39:20;;;;;;;17.90;6.23;;;6.90;91.90;;;;;;5013830;28;20206;-75
2022/01/06 12:41:48;;;;;;;12.27;6.70;;;7.00;91.50;;;;;;5015375;28;20175;-76
2022/01/06 12:44:22;;;;;;;25.37;5.73;;;6.90;91.30;;;;;;5013495;28;20449;-74
2022/01/06 12:46:48;;;;;;;20.53;6.90;;;6.80;91.50;;;;;;5017518;28;20444;-76
2022/01/06 12:49:14;;;;;;;18.30;6.03;;;6.80;91.60;;;;;;5016412;28;20414;-75
2022/01/06 12:51:43;;;;;;;15.20;7.07;;;6.80;92.10;;;;;;5018448;28;20406;-76
2022/01/06 12:54:17;;;;;;;9.40;5.70;;;6.80;91.90;;;;;;5018245;28;20424;-76
2022/01/06 12:56:54;;;;;;;16.43;6.70;;;6.80;92.00;;;;;;5020365;28;20887;-74
2022/01/06 12:59:29;;;;;;;20.10;7.50;;;6.90;92.30;;;;;;5017433;28;20774;-74